Time;durP1;ratioP1;P1;durP2;ratioP2;P2;SDS_P1;SDS_P2;PMS_P1;PMS_P2;Temp;Humidity;BMP_temperature;BMP_pressure;BME280_temperature;BME280_humidity;BME280_pressure;Samples;Min_cycle;Max_cycle;Signal;HPM_P1;HPM_P2
2021/01/18 00:02:10;;;;;;;67.05;23.32;;;;;;;-13.39;59.69;100586.00;1754911;81;22277;-47
2021/01/18 00:04:38;;;;;;;77.08;23.12;;;;;;;-13.39;59.19;100579.64;1756045;81;21005;-47
2021/01/18 00:07:07;;;;;;;74.12;21.77;;;;;;;-13.47;59.20;100583.36;1756513;81;21135;-47
2021/01/18 00:09:37;;;;;;;55.73;19.73;;;;;;;-13.40;59.72;100585.56;1756172;81;21790;-46
2021/01/18 00:12:05;;;;;;;56.18;18.80;;;;;;;-13.32;59.43;100586.56;1756027;81;21276;-47
2021/01/18 00:14:34;;;;;;;58.75;19.23;;;;;;;-13.27;59.72;100587.52;1756093;81;21426;-47
2021/01/18 00:17:07;;;;;;;61.50;19.82;;;;;;;-13.18;59.68;100588.52;1756198;81;21487;-46
2021/01/18 00:19:35;;;;;;;54.35;19.12;;;;;;;-13.15;59.13;100592.39;1743108;80;21014;-47
2021/01/18 00:22:03;;;;;;;57.70;18.55;;;;;;;-13.15;58.88;100589.84;1740322;81;22108;-47
2021/01/18 00:24:31;;;;;;;60.70;19.17;;;;;;;-13.14;58.94;100592.40;1717100;81;23018;-47
2021/01/18 00:26:59;;;;;;;61.77;19.70;;;;;;;-13.15;58.80;100596.20;1751153;79;20988;-46
2021/01/18 00:29:27;;;;;;;54.40;18.25;;;;;;;-13.15;58.68;100601.30;1761360;79;22016;-46
2021/01/18 00:31:54;;;;;;;40.38;15.63;;;;;;;-13.16;58.79;100595.77;1764262;80;21174;-47
2021/01/18 00:34:22;;;;;;;33.58;14.38;;;;;;;-13.11;59.25;100597.55;1763529;80;21203;-47
2021/01/18 00:36:51;;;;;;;40.15;14.87;;;;;;;-13.02;59.92;100594.33;1757248;80;21456;-46
2021/01/18 00:39:18;;;;;;;36.53;14.70;;;;;;;-12.91;59.77;100594.09;1749774;80;21166;-46
2021/01/18 00:41:46;;;;;;;32.35;13.65;;;;;;;-12.83;59.76;100589.55;1754495;80;21163;-48
2021/01/18 00:44:14;;;;;;;37.33;15.20;;;;;;;-12.77;59.56;100589.66;1756174;81;21713;-47
2021/01/18 00:46:46;;;;;;;37.40;14.25;;;;;;;-12.72;59.38;100588.44;1756460;80;21479;-48
2021/01/18 00:49:14;;;;;;;45.75;14.87;;;;;;;-12.67;59.34;100594.47;1756248;81;21251;-48
2021/01/18 00:51:41;;;;;;;40.92;15.50;;;;;;;-12.63;59.13;100601.34;1720410;81;21156;-47
2021/01/18 00:54:09;;;;;;;41.15;15.00;;;;;;;-12.61;58.89;100604.34;1725043;81;22090;-47
2021/01/18 00:56:39;;;;;;;46.30;16.05;;;;;;;-12.59;58.69;100600.55;1732945;81;21149;-47
2021/01/18 00:59:09;;;;;;;49.18;17.27;;;;;;;-12.59;58.62;100596.73;1716946;82;21553;-47
2021/01/18 01:01:47;;;;;;;50.08;17.05;;;;;;;-12.54;58.57;100590.01;1798840;77;28437;-47
2021/01/18 01:04:15;;;;;;;51.35;17.95;;;;;;;-12.56;58.70;100598.05;1758494;77;21055;-46
2021/01/18 01:06:43;;;;;;;47.45;17.45;;;;;;;-12.55;58.32;100604.87;1725724;80;21288;-46
2021/01/18 01:09:11;;;;;;;46.95;17.23;;;;;;;-12.67;58.18;100603.39;1783225;79;21680;-47
2021/01/18 01:11:45;;;;;;;45.33;17.12;;;;;;;-12.76;58.40;100593.92;1785756;79;21046;-47
2021/01/18 01:14:13;;;;;;;46.83;17.95;;;;;;;-12.73;58.53;100596.52;1777306;79;21168;-47
2021/01/18 01:16:44;;;;;;;47.35;18.85;;;;;;;-12.77;58.58;100594.31;1781705;77;21162;-47
2021/01/18 01:19:12;;;;;;;46.70;16.97;;;;;;;-12.73;58.98;100592.69;1774568;77;22426;-47
2021/01/18 01:21:39;;;;;;;44.75;17.12;;;;;;;-12.69;59.00;100591.88;1786038;79;21035;-47
2021/01/18 01:24:07;;;;;;;40.80;14.73;;;;;;;-12.64;59.04;100591.53;1781393;79;21161;-48
2021/01/18 01:26:35;;;;;;;42.10;16.02;;;;;;;-12.57;59.03;100592.91;1788154;79;21190;-47
2021/01/18 01:29:04;;;;;;;45.45;15.18;;;;;;;-12.56;58.81;100593.35;1779405;77;21845;-48
2021/01/18 01:31:32;;;;;;;43.63;16.10;;;;;;;-12.56;58.81;100590.80;1777385;77;22335;-47
2021/01/18 01:33:59;;;;;;;36.08;14.68;;;;;;;-12.54;58.87;100596.78;1778256;77;21232;-48
2021/01/18 01:36:27;;;;;;;40.52;16.87;;;;;;;-12.54;58.59;100596.38;1785239;77;22474;-48
2021/01/18 01:38:56;;;;;;;45.67;19.05;;;;;;;-12.51;58.51;100604.48;1777143;77;21397;-48
2021/01/18 01:41:23;;;;;;;49.73;19.12;;;;;;;-12.50;58.44;100596.00;1759678;79;21216;-47
2021/01/18 01:43:51;;;;;;;56.48;21.50;;;;;;;-12.51;58.71;100595.16;1736159;80;23378;-47
2021/01/18 01:46:19;;;;;;;58.85;21.97;;;;;;;-12.58;57.95;100602.27;1752195;77;21198;-47
2021/01/18 01:48:47;;;;;;;50.38;19.57;;;;;;;-12.79;57.95;100600.23;1718009;80;22173;-47
2021/01/18 01:51:15;;;;;;;49.77;19.60;;;;;;;-12.88;58.15;100596.26;1753120;77;21189;-47
2021/01/18 01:53:43;;;;;;;55.55;21.10;;;;;;;-12.94;57.72;100593.17;1716441;80;21181;-47
2021/01/18 01:56:11;;;;;;;65.28;22.75;;;;;;;-12.98;57.55;100587.17;1766920;80;21740;-47
2021/01/18 01:58:38;;;;;;;58.25;21.60;;;;;;;-13.04;57.40;100584.52;1767140;80;21212;-47
2021/01/18 02:01:06;;;;;;;61.50;21.30;;;;;;;-13.11;57.11;100587.79;1764059;79;22434;-47
2021/01/18 02:03:42;;;;;;;59.18;20.95;;;;;;;-13.17;57.32;100581.31;1758670;80;21238;-47
2021/01/18 02:06:09;;;;;;;55.30;20.05;;;;;;;-13.19;57.49;100577.45;1745066;81;21210;-47
2021/01/18 02:08:37;;;;;;;52.48;20.70;;;;;;;-13.21;57.48;100569.80;1753924;81;21747;-47
2021/01/18 02:11:07;;;;;;;59.00;21.30;;;;;;;-13.21;57.25;100567.25;1754027;81;22453;-48
2021/01/18 02:14:08;;;;;;;57.55;20.52;;;;;;;-13.22;56.97;100567.20;1753218;81;21204;-47
2021/01/18 02:17:04;;;;;;;53.52;18.92;;;;;;;-13.25;56.98;100571.84;1757345;81;21968;-47
2021/01/18 02:20:10;;;;;;;48.33;17.77;;;;;;;-13.27;56.72;100574.78;1698080;83;21202;-47
2021/01/18 02:23:28;;;;;;;52.75;20.15;;;;;;;-13.33;56.79;100577.20;1696177;82;22087;-46
2021/01/18 02:26:00;;;;;;;52.43;18.45;;;;;;;-13.39;56.87;100583.46;1754244;79;22097;-47
2021/01/18 02:29:13;;;;;;;52.00;19.70;;;;;;;-13.46;56.59;100577.84;1756512;81;20976;-47
2021/01/18 02:32:18;;;;;;;52.98;20.05;;;;;;;-13.57;56.45;100587.83;1748756;81;21098;-47
2021/01/18 02:35:14;;;;;;;52.70;19.25;;;;;;;-13.66;57.07;100585.94;1687933;83;20980;-47
2021/01/18 02:37:53;;;;;;;49.85;19.57;;;;;;;-13.70;57.28;100584.16;1692881;84;22170;-47
2021/01/18 02:40:26;;;;;;;54.63;19.75;;;;;;;-13.71;57.46;100588.80;1706788;82;21031;-47
2021/01/18 02:43:03;;;;;;;53.65;18.73;;;;;;;-13.76;57.52;100583.64;1709476;82;21010;-47
2021/01/18 02:45:32;;;;;;;48.75;17.55;;;;;;;-13.81;57.41;100588.65;1699591;82;20983;-47
2021/01/18 02:48:01;;;;;;;52.27;17.40;;;;;;;-13.82;57.51;100589.87;1689214;84;21560;-48
2021/01/18 02:50:29;;;;;;;46.13;16.97;;;;;;;-13.83;57.54;100585.22;1702773;83;21231;-47
2021/01/18 02:52:57;;;;;;;44.77;17.27;;;;;;;-13.85;57.65;100585.59;1724509;82;21505;-47
2021/01/18 02:55:25;;;;;;;48.45;16.73;;;;;;;-13.90;57.65;100579.95;1724348;82;20968;-47
2021/01/18 02:57:52;;;;;;;46.95;18.37;;;;;;;-13.97;57.81;100586.18;1712420;82;21021;-46
2021/01/18 03:00:25;;;;;;;46.58;18.25;;;;;;;-14.01;57.87;100592.03;1703265;82;22089;-46
2021/01/18 03:03:16;;;;;;;48.17;17.90;;;;;;;-14.02;57.95;100593.28;1721574;81;21446;-47
2021/01/18 03:05:59;;;;;;;;;;;;;;;-14.01;57.55;100592.45;1732982;81;21162;-47
2021/01/18 03:08:37;;;;;;;40.03;16.00;;;;;;;-14.02;57.27;100602.19;1716300;81;20239;-47
2021/01/18 03:11:09;;;;;;;40.25;16.42;;;;;;;-14.09;57.18;100594.81;1714936;81;20999;-47
2021/01/18 03:13:58;;;;;;;42.50;17.02;;;;;;;-14.08;57.35;100600.34;1671901;84;21538;-47
2021/01/18 03:16:29;;;;;;;45.98;17.00;;;;;;;-14.07;57.44;100596.14;1650545;83;21411;-47
2021/01/18 03:18:59;;;;;;;45.45;17.57;;;;;;;-14.03;57.68;100596.22;1702523;83;21017;-47
2021/01/18 03:21:27;;;;;;;44.10;15.60;;;;;;;-13.98;57.80;100589.55;1691427;83;21506;-47
2021/01/18 03:23:54;;;;;;;40.98;15.90;;;;;;;-13.94;57.76;100593.03;1722580;81;21158;-46
2021/01/18 03:26:25;;;;;;;43.87;15.58;;;;;;;-13.92;57.59;100595.20;1726399;81;21142;-46
2021/01/18 03:28:54;;;;;;;38.55;15.65;;;;;;;-13.89;57.41;100597.81;1718531;82;21927;-47
2021/01/18 03:31:22;;;;;;;43.42;16.95;;;;;;;-13.88;57.00;100595.70;1712891;81;21004;-46
2021/01/18 03:33:49;;;;;;;45.67;16.77;;;;;;;-13.89;56.94;100599.08;1658227;83;21048;-46
2021/01/18 03:36:17;;;;;;;41.40;15.93;;;;;;;-13.93;56.36;100597.30;1721469;82;21502;-47
2021/01/18 03:38:45;;;;;;;44.50;16.02;;;;;;;-14.02;56.17;100593.28;1705983;82;22039;-47
2021/01/18 03:41:13;;;;;;;39.15;15.88;;;;;;;-14.07;56.34;100596.14;1725199;82;21198;-47
2021/01/18 03:43:42;;;;;;;43.28;16.40;;;;;;;-14.12;56.33;100601.11;1726810;81;21013;-47
2021/01/18 03:46:09;;;;;;;48.63;18.62;;;;;;;-14.21;56.39;100605.59;1720081;82;21680;-47
2021/01/18 03:48:37;;;;;;;49.93;17.50;;;;;;;-14.28;56.34;100607.55;1727528;82;21940;-47
2021/01/18 03:51:05;;;;;;;65.03;22.87;;;;;;;-14.38;56.36;100606.49;1720022;82;21624;-46
2021/01/18 03:53:33;;;;;;;75.30;25.88;;;;;;;-14.45;56.53;100600.39;1720340;82;21359;-46
2021/01/18 03:56:02;;;;;;;88.00;28.17;;;;;;;-14.46;56.81;100602.91;1719695;82;22147;-46
2021/01/18 03:58:30;;;;;;;75.83;25.55;;;;;;;-14.45;57.00;100599.55;1700595;82;21121;-46
2021/01/18 04:00:58;;;;;;;69.60;23.50;;;;;;;-14.42;57.21;100597.92;1719190;82;21145;-47
2021/01/18 04:03:27;;;;;;;65.92;24.60;;;;;;;-14.42;57.04;100608.52;1721769;81;20980;-47
2021/01/18 04:05:56;;;;;;;66.85;22.40;;;;;;;-14.48;56.84;100600.31;1720159;82;21369;-47
2021/01/18 04:08:24;;;;;;;57.75;21.23;;;;;;;-14.54;56.92;100598.51;1721820;82;21008;-46
2021/01/18 04:10:52;;;;;;;53.42;20.82;;;;;;;-14.51;57.38;100605.75;1719986;82;21022;-46
2021/01/18 04:13:21;;;;;;;56.45;20.55;;;;;;;-14.49;57.32;100597.75;1739172;81;20999;-46
2021/01/18 04:15:49;;;;;;;54.77;19.15;;;;;;;-14.46;57.62;100598.67;1719873;82;21145;-47
2021/01/18 04:18:17;;;;;;;50.10;20.68;;;;;;;-14.40;57.26;100604.33;1740262;81;21366;-46
2021/01/18 04:20:45;;;;;;;53.95;19.25;;;;;;;-14.42;56.85;100597.08;1716851;82;22230;-47
2021/01/18 04:23:12;;;;;;;51.02;18.98;;;;;;;-14.44;57.24;100600.84;1718255;82;21616;-47
2021/01/18 04:25:40;;;;;;;48.65;20.23;;;;;;;-14.40;57.38;100598.81;1717861;82;21164;-47
2021/01/18 04:28:08;;;;;;;56.70;19.65;;;;;;;-14.34;56.98;100601.05;1661160;83;21169;-47
2021/01/18 04:30:38;;;;;;;48.23;18.02;;;;;;;-14.36;56.63;100595.07;1726500;82;22768;-47
2021/01/18 04:33:07;;;;;;;45.37;17.77;;;;;;;-14.37;56.54;100602.25;1712923;82;21006;-47
2021/01/18 04:35:39;;;;;;;50.50;17.90;;;;;;;-14.41;56.49;100604.72;1719834;82;21971;-47
2021/01/18 04:38:07;;;;;;;43.85;17.12;;;;;;;-14.42;56.59;100609.36;1698193;82;21145;-48
2021/01/18 04:40:35;;;;;;;53.92;18.40;;;;;;;-14.46;56.43;100605.45;1719644;82;20986;-46
2021/01/18 04:43:03;;;;;;;53.25;20.68;;;;;;;-14.55;56.42;100611.16;1723027;81;21270;-46
2021/01/18 04:45:31;;;;;;;63.15;24.07;;;;;;;-14.60;56.49;100607.25;1731848;80;21026;-46
2021/01/18 04:47:59;;;;;;;61.25;22.05;;;;;;;-14.67;56.34;100605.78;1697029;83;21161;-47
2021/01/18 04:50:28;;;;;;;65.03;22.40;;;;;;;-14.75;56.38;100611.56;1709330;83;21538;-47
2021/01/18 04:53:04;;;;;;;64.97;24.77;;;;;;;-14.80;56.37;100612.28;1710781;82;21621;-47
2021/01/18 04:55:35;;;;;;;58.38;21.80;;;;;;;-14.84;56.57;100608.83;1733824;81;22580;-47
2021/01/18 04:58:11;;;;;;;67.20;24.27;;;;;;;-14.90;56.73;100609.94;1729542;82;21153;-47
2021/01/18 05:00:48;;;;;;;82.45;25.20;;;;;;;-14.95;56.82;100614.89;1741099;81;21180;-47
2021/01/18 05:03:22;;;;;;;81.67;26.12;;;;;;;-14.97;57.04;100620.77;1737181;80;21391;-47
2021/01/18 05:06:05;;;;;;;74.22;25.60;;;;;;;-14.99;57.23;100617.77;1767235;80;20975;-46
2021/01/18 05:08:54;;;;;;;81.87;28.50;;;;;;;-14.96;57.20;100622.48;1750731;80;21383;-46
2021/01/18 05:11:21;;;;;;;81.15;26.52;;;;;;;-14.94;57.24;100624.23;1754988;80;21003;-46
2021/01/18 05:13:49;;;;;;;79.15;26.68;;;;;;;-14.95;57.17;100633.09;1766485;79;22075;-47
2021/01/18 05:16:16;;;;;;;85.53;29.63;;;;;;;-14.96;57.29;100628.83;1678006;83;21844;-47
2021/01/18 05:18:46;;;;;;;85.55;28.25;;;;;;;-14.96;57.53;100632.22;1724161;82;21154;-47
2021/01/18 05:21:14;;;;;;;85.42;28.47;;;;;;;-14.92;58.05;100638.25;1686264;82;22135;-46
2021/01/18 05:23:42;;;;;;;80.55;27.93;;;;;;;-14.92;58.06;100640.80;1678487;83;21149;-46
2021/01/18 05:26:26;;;;;;;83.07;28.30;;;;;;;-14.89;58.17;100647.22;1731411;82;21126;-46
2021/01/18 05:28:55;;;;;;;70.40;25.90;;;;;;;-14.85;58.29;100645.21;1700963;82;21162;-46
2021/01/18 05:31:30;;;;;;;70.03;24.52;;;;;;;-14.81;58.69;100650.78;1700428;83;21130;-46
2021/01/18 05:34:11;;;;;;;63.15;23.27;;;;;;;-14.73;58.96;100654.81;1700160;83;21398;-46
2021/01/18 05:36:48;;;;;;;59.95;21.45;;;;;;;-14.62;59.31;100657.58;1710655;82;28168;-47
2021/01/18 05:39:24;;;;;;;39.03;15.78;;;;;;;-14.49;59.62;100658.76;1732465;82;22098;-46
2021/01/18 05:41:53;;;;;;;39.63;14.30;;;;;;;-14.39;59.77;100669.17;1700782;82;21850;-46
2021/01/18 05:44:34;;;;;;;38.70;14.85;;;;;;;-14.34;60.01;100672.23;1723783;82;21145;-47
2021/01/18 05:47:10;;;;;;;47.13;16.27;;;;;;;-14.29;60.81;100660.50;1726787;82;21223;-46
2021/01/18 05:49:48;;;;;;;40.88;16.45;;;;;;;-14.18;61.02;100659.06;1778060;79;21137;-46
2021/01/18 05:52:29;;;;;;;41.42;16.10;;;;;;;-14.11;60.80;100672.38;1776915;79;21532;-46
2021/01/18 05:55:29;;;;;;;47.13;16.42;;;;;;;-14.08;61.13;100675.38;1765403;79;21106;-47
2021/01/18 05:58:02;;;;;;;40.78;15.78;;;;;;;-14.07;61.22;100678.38;1724126;82;21471;-47
2021/01/18 06:00:35;;;;;;;44.67;16.32;;;;;;;-14.05;61.38;100672.91;1765302;78;21971;-47
2021/01/18 06:03:11;;;;;;;44.33;17.10;;;;;;;-14.00;61.44;100681.94;1755009;79;21148;-46
2021/01/18 06:05:40;;;;;;;44.23;17.57;;;;;;;-13.98;61.49;100689.19;1722317;80;21139;-47
2021/01/18 06:08:17;;;;;;;46.30;16.75;;;;;;;-14.00;61.53;100690.84;1709593;81;21150;-47
2021/01/18 06:10:47;;;;;;;40.92;15.43;;;;;;;-14.00;61.79;100686.59;1724781;82;21138;-47
2021/01/18 06:13:33;;;;;;;40.17;16.30;;;;;;;-13.96;61.86;100691.36;1748224;79;21625;-47
2021/01/18 06:16:09;;;;;;;40.50;16.25;;;;;;;-13.91;62.11;100697.41;1716371;82;22342;-46
2021/01/18 06:18:39;;;;;;;46.35;17.40;;;;;;;-13.85;62.32;100696.67;1717835;82;21057;-47
2021/01/18 06:21:08;;;;;;;;;;;;;;;-13.79;62.17;100689.18;1721190;82;21103;-47
2021/01/18 06:23:37;;;;;;;45.67;15.38;;;;;;;-13.67;62.50;100689.45;1724094;81;20901;-47
2021/01/18 06:26:05;;;;;;;51.42;16.97;;;;;;;-13.54;62.74;100686.73;1739718;79;22405;-48
2021/01/18 06:28:36;;;;;;;44.77;17.98;;;;;;;-13.37;62.73;100685.80;1738736;79;21158;-47
2021/01/18 06:31:07;;;;;;;62.62;24.72;;;;;;;-13.23;62.58;100687.34;1738388;79;21118;-47
2021/01/18 06:33:46;;;;;;;55.23;21.25;;;;;;;-13.08;62.68;100684.66;1714502;82;21742;-47
2021/01/18 06:36:25;;;;;;;45.00;19.12;;;;;;;-12.98;62.73;100689.10;1744454;79;21090;-47
2021/01/18 06:39:04;;;;;;;82.22;34.50;;;;;;;-12.88;62.62;100686.73;1724365;81;22464;-47
2021/01/18 06:41:38;;;;;;;71.45;29.50;;;;;;;-12.80;62.46;100679.65;1749867;79;20999;-47
2021/01/18 06:44:07;;;;;;;41.10;17.50;;;;;;;-12.70;62.57;100692.13;1719030;82;21126;-46
2021/01/18 06:46:36;;;;;;;43.30;16.93;;;;;;;-12.67;62.51;100684.54;1731492;79;21125;-46
2021/01/18 06:49:05;;;;;;;38.53;15.35;;;;;;;-12.65;62.35;100689.25;1731046;82;21153;-47
2021/01/18 06:51:34;;;;;;;39.03;15.10;;;;;;;-12.65;62.43;100694.78;1734620;82;21542;-47
2021/01/18 06:54:02;;;;;;;31.00;13.48;;;;;;;-12.64;62.56;100690.12;1744934;79;21621;-47
2021/01/18 06:56:57;;;;;;;34.55;13.48;;;;;;;-12.58;62.45;100698.28;1713070;79;21586;-46
2021/01/18 06:59:51;;;;;;;32.13;13.32;;;;;;;-12.54;62.46;100710.25;1723985;82;22037;-46
2021/01/18 07:02:26;;;;;;;32.33;11.20;;;;;;;-12.52;62.54;100711.14;1683529;82;21142;-47
2021/01/18 07:05:13;;;;;;;34.50;14.60;;;;;;;-12.56;62.59;100715.74;1740855;81;22227;-46
2021/01/18 07:07:41;;;;;;;34.65;14.13;;;;;;;-12.53;62.72;100717.95;1756963;81;22050;-48
2021/01/18 07:10:10;;;;;;;30.95;12.50;;;;;;;-12.44;62.89;100722.34;1697446;82;21626;-48
2021/01/18 07:12:38;;;;;;;36.77;13.58;;;;;;;-12.39;62.61;100718.61;1753300;80;21094;-47
2021/01/18 07:15:10;;;;;;;37.42;14.00;;;;;;;-12.36;62.58;100721.21;1728739;80;21918;-47
2021/01/18 07:17:53;;;;;;;33.75;13.85;;;;;;;-12.32;62.64;100722.98;1742358;79;21381;-47
2021/01/18 07:20:27;;;;;;;31.65;12.73;;;;;;;-12.26;62.70;100724.77;1696274;82;21138;-48
2021/01/18 07:23:14;;;;;;;27.62;12.28;;;;;;;-12.17;62.63;100723.64;1723351;81;21164;-48
2021/01/18 07:25:47;;;;;;;31.27;12.78;;;;;;;-12.16;62.39;100726.63;1727122;81;21138;-47
2021/01/18 07:28:19;;;;;;;32.88;12.45;;;;;;;-12.17;62.29;100732.14;1745702;79;21585;-47
2021/01/18 07:30:49;;;;;;;29.67;12.25;;;;;;;-12.16;62.23;100734.29;1745439;79;23193;-48
2021/01/18 07:33:17;;;;;;;36.40;14.18;;;;;;;-12.14;62.33;100724.97;1700090;82;20987;-47
2021/01/18 07:35:46;;;;;;;39.85;14.35;;;;;;;-12.11;62.38;100727.97;1745297;79;21102;-48
2021/01/18 07:38:17;;;;;;;30.27;12.98;;;;;;;-12.07;62.46;100730.61;1741764;79;21136;-47
2021/01/18 07:41:10;;;;;;;30.35;11.95;;;;;;;-12.05;62.39;100730.22;1751970;80;21096;-47
2021/01/18 07:43:40;;;;;;;33.95;13.62;;;;;;;-12.00;62.42;100728.16;1759277;79;22119;-47
2021/01/18 07:46:31;;;;;;;30.60;12.93;;;;;;;-11.91;62.47;100729.55;1751545;79;21015;-47
2021/01/18 07:49:00;;;;;;;31.37;12.18;;;;;;;-11.83;62.28;100727.97;1726815;82;21138;-47
2021/01/18 07:51:32;;;;;;;33.45;13.18;;;;;;;-11.80;62.05;100725.87;1722233;82;21139;-47
2021/01/18 07:53:59;;;;;;;35.15;14.25;;;;;;;-11.77;61.98;100734.45;1726811;82;21174;-47
2021/01/18 07:56:31;;;;;;;32.90;12.33;;;;;;;-11.73;61.90;100728.95;1727474;79;21198;-47
2021/01/18 07:59:00;;;;;;;31.35;12.05;;;;;;;-11.67;61.93;100730.76;1725431;82;21130;-47
2021/01/18 08:01:36;;;;;;;32.05;13.45;;;;;;;-11.58;62.06;100733.41;1751256;79;21150;-48
2021/01/18 08:04:19;;;;;;;36.93;14.20;;;;;;;-11.51;62.27;100736.49;1734718;79;21150;-48
2021/01/18 08:07:04;;;;;;;35.00;14.45;;;;;;;-11.34;62.63;100739.30;1707395;82;21126;-47
2021/01/18 08:09:32;;;;;;;30.10;12.88;;;;;;;-11.23;62.12;100740.70;1726763;79;22926;-50
2021/01/18 08:12:35;;;;;;;31.68;12.15;;;;;;;-11.18;61.69;100741.63;1737905;79;21141;-49
2021/01/18 08:15:10;;;;;;;33.33;12.70;;;;;;;-11.13;61.64;100745.09;1721863;82;21542;-47
2021/01/18 08:17:38;;;;;;;29.35;13.48;;;;;;;-11.06;61.28;100743.89;1738101;79;22311;-48
2021/01/18 08:22:53;;;;;;;41.55;16.10;;;;;;;-11.04;61.00;100744.77;1811838;77;29240;-47
2021/01/18 08:25:24;;;;;;;34.63;14.58;;;;;;;-11.06;60.97;100747.73;1791738;78;21955;-47
2021/01/18 08:27:55;;;;;;;;;;;;;;;-11.02;61.10;100749.05;1790499;78;21647;-48
2021/01/18 08:30:37;;;;;;;41.65;16.32;;;;;;;-10.98;60.94;100746.97;1798052;78;20313;-47
2021/01/18 08:33:06;;;;;;;38.00;14.58;;;;;;;-10.92;61.28;100743.64;1796476;78;22439;-47
2021/01/18 08:35:49;;;;;;;44.77;16.85;;;;;;;-10.80;60.92;100745.91;1753181;79;22165;-47
2021/01/18 08:38:30;;;;;;;39.38;17.12;;;;;;;-10.76;60.88;100742.54;1761878;79;20944;-47
2021/01/18 08:43:51;;;;;;;41.05;16.07;;;;;;;-10.39;61.26;100746.30;1838118;76;28210;-47
2021/01/18 08:46:34;;;;;;;37.95;15.88;;;;;;;-10.24;60.56;100754.97;1806426;77;21573;-47
2021/01/18 08:49:31;;;;;;;41.40;16.62;;;;;;;-10.11;60.15;100742.72;1827203;77;21437;-50
2021/01/18 08:51:59;;;;;;;40.75;15.15;;;;;;;-9.99;59.95;100741.95;1786544;79;20943;-47
2021/01/18 08:54:37;;;;;;;32.85;13.13;;;;;;;-9.83;59.44;100740.78;1766440;79;21032;-47
2021/01/18 08:57:23;;;;;;;39.55;15.45;;;;;;;-9.70;59.08;100736.19;1730814;82;21148;-48
2021/01/18 09:00:05;;;;;;;35.75;15.63;;;;;;;-9.59;58.86;100734.96;1721423;81;21161;-48
2021/01/18 09:02:33;;;;;;;33.13;15.25;;;;;;;-9.54;58.28;100731.16;1739889;81;21651;-47
2021/01/18 09:05:22;;;;;;;37.05;14.83;;;;;;;-9.46;57.82;100735.87;1744975;79;21624;-47
2021/01/18 09:07:50;;;;;;;37.67;14.00;;;;;;;-9.39;57.72;100732.50;1736027;81;21146;-47
2021/01/18 09:10:20;;;;;;;38.88;16.12;;;;;;;-9.29;57.38;100730.86;1728101;81;21173;-47
2021/01/18 09:12:49;;;;;;;33.48;13.58;;;;;;;-9.21;57.69;100725.35;1729269;81;21168;-47
2021/01/18 09:15:18;;;;;;;31.12;13.05;;;;;;;-9.08;57.19;100721.12;1720316;81;21178;-48
2021/01/18 09:17:47;;;;;;;31.62;13.15;;;;;;;-9.01;56.36;100722.02;1733284;81;21629;-47
2021/01/18 09:20:16;;;;;;;30.32;13.10;;;;;;;-9.01;56.33;100718.58;1734834;81;21925;-47
2021/01/18 09:22:44;;;;;;;36.88;14.18;;;;;;;-9.02;55.97;100721.59;1720838;81;21148;-48
2021/01/18 09:25:14;;;;;;;36.90;15.05;;;;;;;-9.16;55.41;100716.38;1721840;81;21120;-47
2021/01/18 09:27:42;;;;;;;31.60;13.58;;;;;;;-9.23;55.59;100710.80;1721548;81;22257;-47
2021/01/18 09:30:17;;;;;;;51.92;21.27;;;;;;;-9.14;56.32;100714.68;1721067;81;21040;-47
2021/01/18 09:33:00;;;;;;;34.15;12.43;;;;;;;-8.99;56.25;100717.72;1720065;81;21624;-48
2021/01/18 09:35:29;;;;;;;38.30;14.53;;;;;;;-8.84;55.32;100710.92;1713132;81;21662;-47
2021/01/18 09:37:58;;;;;;;38.95;15.90;;;;;;;-8.82;55.04;100707.94;1734643;81;20956;-47
2021/01/18 09:40:30;;;;;;;30.68;13.10;;;;;;;-8.78;55.19;100710.53;1727019;81;21208;-48
2021/01/18 09:42:58;;;;;;;36.85;15.13;;;;;;;-8.72;54.67;100707.11;1729174;81;21152;-47
2021/01/18 09:45:26;;;;;;;34.50;15.75;;;;;;;-8.60;55.09;100710.98;1703758;82;20991;-47
2021/01/18 09:48:06;;;;;;;27.73;12.73;;;;;;;-8.41;55.10;100706.27;1709763;82;21149;-47
2021/01/18 09:50:35;;;;;;;27.90;11.65;;;;;;;-8.25;54.39;100711.01;1757273;79;21145;-48
2021/01/18 09:53:07;;;;;;;27.80;12.10;;;;;;;-8.13;53.94;100705.01;1756588;79;22197;-48
2021/01/18 09:55:47;;;;;;;25.57;12.23;;;;;;;-8.02;54.03;100702.01;1764542;79;21617;-48
2021/01/18 09:58:30;;;;;;;28.23;12.93;;;;;;;-7.96;53.36;100702.00;1791478;79;20988;-47
2021/01/18 10:00:58;;;;;;;31.50;12.20;;;;;;;-7.95;52.67;100698.58;1785083;79;21102;-48
2021/01/18 10:03:32;;;;;;;32.15;13.90;;;;;;;-7.96;52.30;100692.17;1796993;79;21125;-48
2021/01/18 10:06:06;;;;;;;32.15;12.78;;;;;;;-8.05;52.18;100687.47;1781439;79;21207;-48
2021/01/18 10:08:38;;;;;;;30.00;13.22;;;;;;;-8.21;52.04;100694.30;1763364;79;21622;-48
2021/01/18 10:11:06;;;;;;;24.98;11.25;;;;;;;-8.36;52.41;100693.88;1767035;79;20987;-48
2021/01/18 10:13:35;;;;;;;31.55;13.13;;;;;;;-8.45;52.64;100695.16;1761328;79;20931;-48
2021/01/18 10:16:09;;;;;;;29.72;13.78;;;;;;;-8.43;52.98;100696.42;1776178;79;21106;-47
2021/01/18 10:18:42;;;;;;;29.77;12.65;;;;;;;-8.38;52.58;100697.28;1786759;79;21252;-47
2021/01/18 10:21:11;;;;;;;35.78;15.43;;;;;;;-8.33;52.96;100707.13;1770267;79;21817;-47
2021/01/18 10:23:46;;;;;;;30.30;12.18;;;;;;;-8.24;52.68;100698.16;1758708;79;21026;-47
2021/01/18 10:26:20;;;;;;;33.63;13.83;;;;;;;-8.24;52.46;100691.73;1725065;81;21941;-48
2021/01/18 10:28:59;;;;;;;33.75;14.38;;;;;;;-8.19;52.94;100699.45;1770620;79;21616;-47
2021/01/18 10:31:31;;;;;;;32.33;14.03;;;;;;;-8.13;52.79;100702.02;1751450;79;21376;-47
2021/01/18 10:34:14;;;;;;;29.05;11.88;;;;;;;-8.05;52.52;100701.59;1783083;79;21015;-48
2021/01/18 10:36:45;;;;;;;31.62;12.78;;;;;;;-8.03;52.30;100696.03;1777353;79;20956;-48
2021/01/18 10:39:37;;;;;;;39.48;14.53;;;;;;;-8.02;52.54;100699.44;1763329;79;21840;-47
2021/01/18 10:42:16;;;;;;;34.80;13.62;;;;;;;-7.94;52.64;100701.98;1766171;79;20975;-47
2021/01/18 10:44:56;;;;;;;31.37;13.93;;;;;;;-7.98;51.51;100693.45;1732319;81;21262;-48
2021/01/18 10:47:27;;;;;;;33.58;14.45;;;;;;;-8.19;51.81;100691.31;1678713;84;21168;-47
2021/01/18 10:49:59;;;;;;;31.27;13.68;;;;;;;-8.24;52.43;100694.30;1776450;79;21974;-47
2021/01/18 10:52:42;;;;;;;28.60;12.68;;;;;;;-8.21;52.41;100690.89;1767151;79;22153;-47
2021/01/18 10:55:13;;;;;;;27.87;12.07;;;;;;;-8.19;52.41;100683.60;1713289;81;21011;-49
2021/01/18 10:57:45;;;;;;;31.20;12.98;;;;;;;-8.26;52.15;100683.17;1709981;82;22604;-47
2021/01/18 11:00:25;;;;;;;30.75;13.10;;;;;;;-8.26;52.27;100694.73;1711892;82;21136;-47
2021/01/18 11:03:03;;;;;;;37.55;16.27;;;;;;;-8.28;51.86;100695.16;1761325;79;20983;-47
2021/01/18 11:05:39;;;;;;;48.02;18.48;;;;;;;-8.32;52.42;100694.31;1756536;79;22037;-46
2021/01/18 11:08:09;;;;;;;41.05;17.62;;;;;;;-8.33;52.49;100698.14;1775715;79;21141;-48
2021/01/18 11:10:43;;;;;;;52.93;16.00;;;;;;;-8.26;52.64;100697.74;1764582;79;22980;-47
2021/01/18 11:13:15;;;;;;;42.38;17.77;;;;;;;-8.20;52.38;100690.87;1754418;79;21165;-48
2021/01/18 11:15:45;;;;;;;46.10;19.85;;;;;;;-8.17;52.06;100689.59;1759163;79;21961;-49
2021/01/18 11:18:13;;;;;;;39.95;16.12;;;;;;;-8.16;52.15;100693.03;1759339;79;21121;-47
2021/01/18 11:20:45;;;;;;;32.23;12.10;;;;;;;-8.06;52.46;100692.59;1760916;79;20984;-48
2021/01/18 11:23:13;;;;;;;;;;;;;;;-7.99;52.05;100698.59;1762299;79;22857;-48
2021/01/18 11:25:40;;;;;;;31.33;13.22;;;;;;;-8.11;51.99;100688.75;1760662;79;20183;-48
2021/01/18 11:28:13;;;;;;;23.77;11.85;;;;;;;-8.22;52.14;100691.31;1753453;79;21130;-47
2021/01/18 11:30:42;;;;;;;35.28;13.28;;;;;;;-8.25;52.21;100683.60;1762708;79;21133;-47
2021/01/18 11:33:11;;;;;;;27.67;11.18;;;;;;;-8.28;51.97;100684.89;1766713;79;21122;-47
2021/01/18 11:35:42;;;;;;;24.82;10.28;;;;;;;-8.30;51.93;100684.03;1757317;79;21466;-47
2021/01/18 11:38:13;;;;;;;28.90;11.95;;;;;;;-8.41;51.87;100687.89;1761863;79;20999;-47